createdAt,value
2022-09-23T00:01:29.220Z,53.21
2022-09-23T00:03:59.143Z,53.32
2022-09-23T00:06:31.099Z,53.41
2022-09-23T00:08:58.844Z,53.47
2022-09-23T00:11:28.944Z,53.60
2022-09-23T00:14:00.233Z,53.98
2022-09-23T00:16:36.724Z,53.91
2022-09-23T00:19:05.635Z,54.13
2022-09-23T00:21:33.321Z,54.26
2022-09-23T00:24:01.342Z,54.26
2022-09-23T00:26:29.369Z,54.06
2022-09-23T00:29:00.003Z,54.15
2022-09-23T00:31:28.367Z,54.55
2022-09-23T00:34:01.476Z,54.57
2022-09-23T00:36:32.216Z,54.70
2022-09-23T00:39:00.336Z,54.57
2022-09-23T00:41:29.039Z,54.99
2022-09-23T00:44:01.370Z,55.08
2022-09-23T00:46:36.873Z,55.15
2022-09-23T00:49:15.265Z,54.84
2022-09-23T00:51:58.852Z,54.59
2022-09-23T00:54:29.110Z,54.59
2022-09-23T00:57:00.233Z,54.67
2022-09-23T00:59:29.213Z,54.81
2022-09-23T01:02:00.353Z,54.67
2022-09-23T01:04:30.545Z,54.52
2022-09-23T01:07:00.384Z,54.59
2022-09-23T01:09:29.579Z,54.38
2022-09-23T01:12:34.338Z,53.82
2022-09-23T01:15:26.402Z,53.77
2022-09-23T01:18:21.265Z,53.62
2022-09-23T01:21:15.195Z,53.39
2022-09-23T01:24:02.539Z,53.33
2022-09-23T01:26:51.317Z,53.35
2022-09-23T01:29:27.843Z,53.19
2022-09-23T01:32:02.940Z,53.25
2022-09-23T01:34:38.828Z,52.99
2022-09-23T01:37:31.869Z,52.99
2022-09-23T01:40:11.505Z,53.12
2022-09-23T01:43:01.888Z,53.29
2022-09-23T01:45:46.503Z,53.50
2022-09-23T01:48:26.470Z,52.96
2022-09-23T01:51:10.932Z,53.17
2022-09-23T01:53:52.351Z,53.30
2022-09-23T01:56:45.944Z,52.81
2022-09-23T01:59:39.379Z,53.09
2022-09-23T02:02:17.375Z,53.07
2022-09-23T02:04:57.192Z,53.43
2022-09-23T02:07:41.847Z,53.43
2022-09-23T02:10:26.750Z,53.67
2022-09-23T02:13:01.241Z,54.35
2022-09-23T02:15:51.235Z,53.53
2022-09-23T02:18:28.840Z,53.66
2022-09-23T02:21:01.363Z,53.38
2022-09-23T02:23:42.504Z,53.49
2022-09-23T02:26:35.258Z,53.74
2022-09-23T02:29:08.977Z,53.74
2022-09-23T02:31:58.081Z,53.90
2022-09-23T02:34:41.173Z,53.91
2022-09-23T02:37:27.170Z,53.70
2022-09-23T02:40:22.696Z,53.69
2022-09-23T02:43:11.664Z,53.62
2022-09-23T02:45:39.452Z,53.89
2022-09-23T02:48:23.467Z,53.52
2022-09-23T02:50:52.088Z,53.50
2022-09-23T02:53:19.995Z,53.35
2022-09-23T02:55:47.603Z,53.41
2022-09-23T02:58:16.457Z,53.68
2022-09-23T03:00:57.956Z,53.18
2022-09-23T03:03:47.382Z,53.27
2022-09-23T03:06:27.720Z,53.78
2022-09-23T03:09:18.984Z,53.88
2022-09-23T03:11:56.874Z,53.77
2022-09-23T03:14:41.240Z,53.90
2022-09-23T03:17:42.111Z,53.54
2022-09-23T03:20:40.976Z,53.74
2022-09-23T03:23:14.801Z,53.79
2022-09-23T03:25:48.898Z,54.11
2022-09-23T03:28:20.265Z,54.15
2022-09-23T03:30:53.214Z,54.26
2022-09-23T03:33:28.774Z,54.82
2022-09-23T03:36:30.512Z,54.54
2022-09-23T03:39:06.283Z,54.53
2022-09-23T03:41:45.198Z,54.57
2022-09-23T03:44:12.819Z,54.61
2022-09-23T03:46:44.076Z,55.20
2022-09-23T03:49:19.425Z,55.36
2022-09-23T03:51:47.139Z,55.47
2022-09-23T03:54:14.670Z,55.67
2022-09-23T03:56:42.432Z,56.09
2022-09-23T03:59:09.887Z,56.24
2022-09-23T04:01:37.459Z,56.43
2022-09-23T04:04:05.055Z,56.56
2022-09-23T04:06:32.627Z,56.67
2022-09-23T04:09:01.568Z,56.70
2022-09-23T04:11:32.304Z,56.67
2022-09-23T04:14:00.139Z,56.70
2022-09-23T04:16:27.972Z,57.04
2022-09-23T04:18:59.220Z,57.08
2022-09-23T04:21:27.046Z,56.85
2022-09-23T04:23:54.585Z,56.74
2022-09-23T04:26:22.247Z,56.72
2022-09-23T04:28:49.771Z,56.61
2022-09-23T04:31:17.805Z,56.23
2022-09-23T04:33:45.316Z,56.43
2022-09-23T04:36:12.844Z,56.35
2022-09-23T04:38:43.029Z,56.69
2022-09-23T04:41:10.800Z,56.56
2022-09-23T04:43:39.660Z,56.55
2022-09-23T04:46:09.952Z,56.62
2022-09-23T04:48:39.424Z,56.51
2022-09-23T04:51:11.115Z,56.55
2022-09-23T04:53:41.167Z,57.66
2022-09-23T04:56:11.972Z,57.93
2022-09-23T04:58:41.571Z,58.34
2022-09-23T05:01:15.869Z,59.17
2022-09-23T05:03:45.057Z,59.47
2022-09-23T05:06:15.066Z,60.36
2022-09-23T05:08:52.180Z,60.69
2022-09-23T05:11:20.779Z,60.51
2022-09-23T05:13:50.734Z,60.90
2022-09-23T05:16:19.470Z,60.78
2022-09-23T05:18:48.251Z,60.77
2022-09-23T05:21:18.449Z,61.62
2022-09-23T05:23:55.338Z,62.33
2022-09-23T05:26:28.084Z,62.07
2022-09-23T05:29:01.064Z,61.03
2022-09-23T05:31:31.255Z,60.62
2022-09-23T05:34:02.135Z,60.16
2022-09-23T05:36:36.887Z,59.89
2022-09-23T05:39:07.630Z,59.66
2022-09-23T05:41:36.542Z,59.22
2022-09-23T05:44:04.516Z,59.05
2022-09-23T05:46:33.180Z,58.69
2022-09-23T05:49:03.475Z,58.29
2022-09-23T05:51:32.429Z,58.03
2022-09-23T05:54:03.046Z,57.20
2022-09-23T05:56:32.349Z,57.06
2022-09-23T05:59:01.801Z,56.63
2022-09-23T06:01:34.278Z,57.41
2022-09-23T06:04:04.573Z,57.26
2022-09-23T06:06:41.668Z,56.97
2022-09-23T06:09:13.800Z,56.11
2022-09-23T06:11:42.633Z,57.66
2022-09-23T06:14:14.769Z,57.09
2022-09-23T06:16:43.161Z,54.88
2022-09-23T06:19:11.198Z,54.29
2022-09-23T06:21:40.883Z,51.40
2022-09-23T06:24:09.291Z,50.20
2022-09-23T06:26:38.449Z,48.64
2022-09-23T06:29:14.599Z,47.43
2022-09-23T06:31:43.526Z,46.04
2022-09-23T06:34:13.871Z,46.56
2022-09-23T06:36:45.555Z,47.24
2022-09-23T06:39:16.956Z,47.74
2022-09-23T06:41:48.202Z,47.86
2022-09-23T06:44:16.818Z,48.27
2022-09-23T06:46:45.018Z,49.12
2022-09-23T06:49:13.363Z,49.12
2022-09-23T06:51:41.492Z,47.92
2022-09-23T06:54:09.461Z,48.99
2022-09-23T06:56:39.408Z,48.51
2022-09-23T06:59:10.505Z,47.90
2022-09-23T07:01:38.336Z,46.42
2022-09-23T07:04:07.835Z,45.31
2022-09-23T07:06:36.296Z,45.64
2022-09-23T07:09:05.761Z,44.77
2022-09-23T07:11:33.541Z,44.94
2022-09-23T07:14:01.209Z,45.32
2022-09-23T07:16:29.184Z,45.89
2022-09-23T07:18:56.919Z,46.38
2022-09-23T07:21:27.024Z,46.85
2022-09-23T07:23:55.223Z,47.91
2022-09-23T07:26:23.236Z,48.15
2022-09-23T07:28:56.309Z,48.03
2022-09-23T07:31:38.630Z,48.29
2022-09-23T07:34:11.667Z,47.59
2022-09-23T07:36:41.332Z,46.66
2022-09-23T07:39:11.869Z,46.35
2022-09-23T07:41:41.597Z,44.89
2022-09-23T07:44:11.985Z,43.84
2022-09-23T07:46:40.258Z,42.72
2022-09-23T07:49:08.199Z,42.77
2022-09-23T07:51:38.262Z,42.43
2022-09-23T07:54:10.146Z,42.04
2022-09-23T07:56:40.318Z,40.87
2022-09-23T07:59:15.568Z,41.51
2022-09-23T08:01:46.277Z,41.62
2022-09-23T08:04:23.908Z,43.34
2022-09-23T08:07:13.606Z,43.89
2022-09-23T08:09:43.910Z,43.99
2022-09-23T08:12:16.355Z,43.95
2022-09-23T08:14:44.934Z,43.02
2022-09-23T08:17:13.958Z,41.73
2022-09-23T08:19:41.490Z,41.40
2022-09-23T08:22:09.504Z,42.26
2022-09-23T08:24:37.259Z,42.26
2022-09-23T08:27:05.173Z,41.25
2022-09-23T08:29:32.794Z,40.73
2022-09-23T08:32:03.366Z,40.84
2022-09-23T08:34:31.185Z,41.94
2022-09-23T08:36:59.083Z,41.36
2022-09-23T08:39:30.316Z,39.84
2022-09-23T08:42:20.938Z,37.28
2022-09-23T08:44:54.307Z,36.58
2022-09-23T08:47:32.283Z,37.28
2022-09-23T08:50:13.209Z,37.16
2022-09-23T08:53:07.934Z,37.31
2022-09-23T08:55:40.023Z,38.45
2022-09-23T08:58:35.263Z,39.63
2022-09-23T09:01:27.341Z,40.93
2022-09-23T09:04:01.908Z,41.84
2022-09-23T09:06:53.603Z,41.08
2022-09-23T09:09:32.586Z,41.11
2022-09-23T09:12:06.280Z,40.63
2022-09-23T09:14:47.705Z,40.32
2022-09-23T09:17:39.747Z,40.70
2022-09-23T09:20:19.076Z,42.28
2022-09-23T09:23:02.471Z,42.18
2022-09-23T09:26:01.764Z,41.78
2022-09-23T09:28:39.172Z,41.25
2022-09-23T09:31:27.099Z,41.05
2022-09-23T09:34:06.525Z,40.31
2022-09-23T09:36:54.420Z,41.95
2022-09-23T09:39:26.133Z,41.42
2022-09-23T09:41:58.988Z,40.68
2022-09-23T09:44:47.747Z,40.24
2022-09-23T09:47:52.105Z,39.37
2022-09-23T09:50:45.571Z,39.01
2022-09-23T09:53:19.331Z,38.11
2022-09-23T09:56:04.363Z,36.61
2022-09-23T09:59:01.904Z,36.44
2022-09-23T10:01:34.804Z,36.44
2022-09-23T10:04:26.028Z,34.72
2022-09-23T10:07:16.401Z,34.94
2022-09-23T10:09:51.176Z,34.35
2022-09-23T10:12:26.149Z,34.74
2022-09-23T10:14:58.124Z,35.18
2022-09-23T10:17:34.348Z,34.30
2022-09-23T10:20:08.399Z,35.01
2022-09-23T10:22:42.845Z,35.68
2022-09-23T10:25:20.998Z,35.96
2022-09-23T10:27:49.006Z,36.26
2022-09-23T10:30:35.714Z,36.05
2022-09-23T10:33:03.562Z,36.86
2022-09-23T10:35:34.487Z,37.76
2022-09-23T10:38:05.800Z,38.27
2022-09-23T10:40:59.071Z,36.69
2022-09-23T10:44:35.082Z,38.01
2022-09-23T10:47:14.645Z,38.01
2022-09-23T10:50:03.894Z,38.38
2022-09-23T10:52:44.304Z,38.95
2022-09-23T10:55:40.868Z,37.92
2022-09-23T10:58:30.676Z,38.30
2022-09-23T11:01:50.047Z,38.95
2022-09-23T11:04:17.716Z,38.91
2022-09-23T11:07:18.377Z,37.41
2022-09-23T11:09:48.972Z,37.55
2022-09-23T11:12:26.749Z,38.33
2022-09-23T11:15:22.434Z,39.48
2022-09-23T11:18:08.708Z,38.03
2022-09-23T11:20:40.617Z,39.37
2022-09-23T11:23:36.357Z,39.19
2022-09-23T11:26:32.172Z,39.68
2022-09-23T11:29:10.529Z,39.63
2022-09-23T11:32:01.121Z,39.58
2022-09-23T11:34:54.958Z,37.85
2022-09-23T11:37:34.998Z,38.05
2022-09-23T11:40:23.473Z,37.76
2022-09-23T11:42:59.094Z,38.24
2022-09-23T11:45:33.372Z,38.73
2022-09-23T11:48:11.619Z,39.74
2022-09-23T11:50:54.027Z,38.92
2022-09-23T11:53:45.866Z,39.14
2022-09-23T11:56:41.320Z,39.64
2022-09-23T11:59:39.955Z,39.95
2022-09-23T12:02:24.647Z,39.27
2022-09-23T12:05:12.571Z,39.67
2022-09-23T12:08:06.382Z,39.56
2022-09-23T12:10:42.995Z,39.52
2022-09-23T12:13:42.332Z,39.62
2022-09-23T12:16:42.634Z,39.35
2022-09-23T12:19:29.245Z,40.27
2022-09-23T12:22:03.880Z,40.46
2022-09-23T12:24:47.966Z,40.83
2022-09-23T12:27:43.954Z,41.07
2022-09-23T12:30:16.733Z,41.12
2022-09-23T12:32:45.579Z,41.43
2022-09-23T12:35:32.183Z,41.90
2022-09-23T12:38:14.945Z,40.85
2022-09-23T12:40:44.790Z,40.65
2022-09-23T12:43:18.932Z,41.43
2022-09-23T12:45:48.110Z,41.35
2022-09-23T12:48:18.810Z,41.22
2022-09-23T12:50:51.025Z,41.71
2022-09-23T12:53:33.799Z,41.60
2022-09-23T12:56:19.617Z,41.90
2022-09-23T12:58:47.179Z,42.53
2022-09-23T13:01:22.997Z,42.88
2022-09-23T13:04:17.016Z,41.84
2022-09-23T13:07:01.594Z,42.86
2022-09-23T13:09:37.242Z,43.16
2022-09-23T13:12:17.075Z,42.31
2022-09-23T13:14:49.957Z,41.17
2022-09-23T13:17:37.922Z,42.31
2022-09-23T13:20:20.757Z,42.12
2022-09-23T13:22:54.180Z,42.28
2022-09-23T13:25:33.363Z,40.66
2022-09-23T13:28:11.859Z,40.58
2022-09-23T13:30:52.281Z,40.53
2022-09-23T13:33:53.143Z,40.47
2022-09-23T13:36:21.434Z,41.27
2022-09-23T13:38:49.679Z,40.88
2022-09-23T13:41:29.173Z,40.55
2022-09-23T13:44:00.346Z,40.14
2022-09-23T13:46:35.828Z,40.19
2022-09-23T13:49:03.953Z,40.20
2022-09-23T13:51:35.283Z,42.40
2022-09-23T13:54:05.808Z,42.97
2022-09-23T13:56:36.603Z,42.99
2022-09-23T13:59:26.051Z,43.96
2022-09-23T14:02:11.976Z,43.79
2022-09-23T14:04:40.758Z,43.87
2022-09-23T14:07:14.989Z,43.94
2022-09-23T14:09:49.752Z,44.24
2022-09-23T14:12:22.535Z,44.08
2022-09-23T14:14:53.055Z,43.70
2022-09-23T14:17:23.595Z,44.24
2022-09-23T14:19:52.603Z,44.98
2022-09-23T14:22:31.370Z,44.56
2022-09-23T14:25:00.569Z,45.63
2022-09-23T14:27:36.224Z,45.21
2022-09-23T14:30:05.424Z,45.65
2022-09-23T14:32:34.106Z,46.24
2022-09-23T14:35:05.233Z,46.43
2022-09-23T14:37:57.880Z,45.94
2022-09-23T14:40:32.913Z,45.43
2022-09-23T14:43:08.367Z,45.99
2022-09-23T14:45:39.694Z,46.53
2022-09-23T14:48:14.289Z,46.77
2022-09-23T14:50:52.424Z,46.86
2022-09-23T14:53:23.392Z,47.17
2022-09-23T14:56:21.657Z,47.34
2022-09-23T14:58:56.638Z,47.64
2022-09-23T15:01:35.127Z,48.15
2022-09-23T15:04:17.515Z,48.43
2022-09-23T15:07:07.466Z,47.17
2022-09-23T15:09:44.129Z,47.81
2022-09-23T15:12:22.158Z,47.04
2022-09-23T15:14:56.804Z,46.99
2022-09-23T15:17:26.916Z,47.02
2022-09-23T15:20:17.525Z,46.11
2022-09-23T15:22:46.934Z,47.36
2022-09-23T15:25:40.600Z,47.75
2022-09-23T15:28:12.316Z,47.59
2022-09-23T15:30:40.591Z,48.54
2022-09-23T15:33:11.761Z,48.33
2022-09-23T15:35:48.344Z,48.30
2022-09-23T15:38:17.626Z,47.94
2022-09-23T15:40:45.681Z,48.01
2022-09-23T15:43:26.662Z,48.37
2022-09-23T15:45:58.844Z,48.31
2022-09-23T15:48:43.378Z,48.64
2022-09-23T15:51:15.390Z,48.99
2022-09-23T15:53:43.392Z,49.58
2022-09-23T15:56:11.117Z,49.57
2022-09-23T15:58:38.660Z,49.50
2022-09-23T16:01:06.807Z,49.91
2022-09-23T16:03:34.675Z,50.08
2022-09-23T16:06:04.133Z,50.77
2022-09-23T16:08:33.094Z,50.67
2022-09-23T16:11:01.140Z,51.05
2022-09-23T16:13:28.891Z,51.09
2022-09-23T16:15:56.695Z,51.46
2022-09-23T16:18:27.565Z,51.73
2022-09-23T16:21:00.582Z,52.44
2022-09-23T16:23:34.853Z,53.23
2022-09-23T16:26:15.896Z,53.60
2022-09-23T16:28:45.784Z,54.49
2022-09-23T16:31:17.693Z,55.08
2022-09-23T16:33:51.445Z,54.04
2022-09-23T16:36:31.160Z,53.77
2022-09-23T16:39:01.188Z,53.84
2022-09-23T16:41:31.675Z,54.24
2022-09-23T16:44:00.921Z,55.11
2022-09-23T16:46:31.573Z,54.90
2022-09-23T16:49:03.090Z,55.07
2022-09-23T16:51:38.705Z,55.54
2022-09-23T16:54:14.204Z,55.61
2022-09-23T16:56:45.212Z,56.25
2022-09-23T16:59:16.676Z,55.82
2022-09-23T17:02:03.625Z,55.58
2022-09-23T17:04:31.582Z,55.31
2022-09-23T17:07:00.294Z,55.06
2022-09-23T17:09:30.246Z,54.80
2022-09-23T17:12:25.059Z,55.11
2022-09-23T17:14:53.188Z,55.39
2022-09-23T17:17:20.840Z,55.73
2022-09-23T17:19:48.323Z,56.08
2022-09-23T17:22:15.935Z,56.66
2022-09-23T17:24:43.522Z,57.01
2022-09-23T17:27:11.112Z,57.46
2022-09-23T17:29:38.691Z,57.20
2022-09-23T17:32:08.755Z,57.04
2022-09-23T17:34:36.773Z,57.66
2022-09-23T17:37:04.713Z,57.39
2022-09-23T17:39:32.356Z,57.25
2022-09-23T17:42:00.199Z,56.82
2022-09-23T17:44:27.863Z,57.83
2022-09-23T17:46:55.626Z,57.59
2022-09-23T17:49:26.762Z,58.33
2022-09-23T17:51:55.836Z,58.91
2022-09-23T17:54:23.520Z,59.24
2022-09-23T17:56:51.145Z,59.03
2022-09-23T17:59:18.846Z,58.79
2022-09-23T18:01:46.522Z,58.88
2022-09-23T18:04:14.488Z,57.89
2022-09-23T18:06:42.448Z,57.36
2022-09-23T18:09:10.994Z,57.29
2022-09-23T18:11:41.457Z,56.89
2022-09-23T18:14:25.445Z,56.92
2022-09-23T18:16:54.789Z,56.62
2022-09-23T18:19:27.051Z,56.25
2022-09-23T18:21:57.417Z,56.36
2022-09-23T18:24:32.507Z,56.69
2022-09-23T18:27:01.431Z,56.43
2022-09-23T18:29:32.554Z,56.23
2022-09-23T18:32:03.796Z,56.33
2022-09-23T18:34:31.497Z,56.25
2022-09-23T18:36:59.393Z,56.43
2022-09-23T18:39:27.076Z,56.17
2022-09-23T18:41:55.785Z,56.27
2022-09-23T18:44:23.573Z,56.21
2022-09-23T18:46:51.678Z,56.39
2022-09-23T18:49:38.202Z,56.44
2022-09-23T18:52:08.812Z,56.16
2022-09-23T18:54:36.595Z,56.34
2022-09-23T18:57:05.487Z,56.91
2022-09-23T18:59:33.526Z,56.40
2022-09-23T19:02:01.562Z,56.26
2022-09-23T19:04:32.503Z,56.64
2022-09-23T19:07:00.281Z,56.92
2022-09-23T19:09:27.890Z,57.15
2022-09-23T19:11:55.702Z,57.55
2022-09-23T19:14:23.607Z,57.44
2022-09-23T19:16:51.972Z,57.53
2022-09-23T19:19:19.686Z,57.99
2022-09-23T19:21:47.436Z,58.12
2022-09-23T19:24:15.948Z,58.18
2022-09-23T19:26:44.429Z,58.29
2022-09-23T19:29:17.519Z,58.02
2022-09-23T19:31:45.663Z,58.04
2022-09-23T19:34:16.552Z,58.20
2022-09-23T19:36:46.919Z,58.31
2022-09-23T19:39:18.864Z,58.31
2022-09-23T19:41:48.585Z,58.35
2022-09-23T19:44:17.394Z,58.45
2022-09-23T19:46:55.081Z,58.61
2022-09-23T19:49:25.123Z,58.89
2022-09-23T19:51:56.029Z,58.83
2022-09-23T19:54:27.133Z,59.02
2022-09-23T19:56:55.485Z,59.10
2022-09-23T19:59:23.071Z,59.02
2022-09-23T20:01:50.699Z,59.13
2022-09-23T20:04:18.272Z,58.86
2022-09-23T20:06:46.604Z,59.06
2022-09-23T20:09:14.418Z,59.16
2022-09-23T20:11:44.159Z,59.14
2022-09-23T20:14:13.058Z,59.26
2022-09-23T20:16:40.735Z,59.24
2022-09-23T20:19:09.843Z,59.76
2022-09-23T20:21:37.817Z,59.82
2022-09-23T20:24:07.000Z,59.79
2022-09-23T20:26:53.511Z,59.73
2022-09-23T20:29:21.214Z,59.88
2022-09-23T20:31:49.076Z,59.99
2022-09-23T20:34:16.860Z,60.02
2022-09-23T20:36:44.433Z,60.11
2022-09-23T20:39:11.986Z,60.13
2022-09-23T20:41:39.921Z,60.12
2022-09-23T20:44:13.933Z,60.12
2022-09-23T20:46:48.237Z,60.18
2022-09-23T20:49:20.777Z,60.33
2022-09-23T20:51:49.984Z,60.54
2022-09-23T20:54:21.833Z,60.76
2022-09-23T20:56:50.033Z,61.27
2022-09-23T20:59:18.284Z,61.65
2022-09-23T21:01:47.604Z,62.55
2022-09-23T21:04:15.525Z,63.10
2022-09-23T21:06:43.318Z,63.40
2022-09-23T21:09:11.007Z,64.08
2022-09-23T21:11:38.597Z,63.78
2022-09-23T21:14:06.599Z,63.80
2022-09-23T21:16:34.553Z,64.13
2022-09-23T21:19:08.019Z,64.80
2022-09-23T21:21:36.703Z,64.81
2022-09-23T21:24:31.330Z,65.06
2022-09-23T21:26:55.373Z,65.52
2022-09-23T21:29:23.024Z,65.89
2022-09-23T21:31:50.864Z,66.19
2022-09-23T21:34:19.343Z,66.28
2022-09-23T21:36:48.513Z,65.84
2022-09-23T21:39:16.067Z,65.80
2022-09-23T21:41:43.637Z,65.73
2022-09-23T21:44:12.047Z,65.54
2022-09-23T21:46:39.822Z,65.58
2022-09-23T21:49:09.200Z,65.25
2022-09-23T21:51:40.879Z,65.28
2022-09-23T21:54:14.320Z,65.35
2022-09-23T21:56:43.293Z,65.36
2022-09-23T21:59:11.500Z,65.34
2022-09-23T22:01:43.679Z,65.27
2022-09-23T22:04:19.539Z,65.54
2022-09-23T22:06:49.096Z,65.57
2022-09-23T22:09:19.933Z,65.84
2022-09-23T22:12:08.610Z,65.93
2022-09-23T22:14:37.090Z,66.30
2022-09-23T22:17:07.269Z,66.20
2022-09-23T22:19:44.256Z,65.89
2022-09-23T22:22:16.700Z,65.90
2022-09-23T22:24:46.360Z,66.04
2022-09-23T22:27:16.728Z,66.43
2022-09-23T22:30:03.105Z,66.78
2022-09-23T22:32:53.027Z,66.90
2022-09-23T22:35:22.572Z,66.91
2022-09-23T22:37:50.805Z,66.61
2022-09-23T22:40:18.800Z,66.61
2022-09-23T22:42:46.897Z,66.73
2022-09-23T22:45:14.837Z,66.57
2022-09-23T22:47:45.395Z,66.61
2022-09-23T22:50:16.732Z,66.50
2022-09-23T22:52:44.395Z,66.56
2022-09-23T22:55:12.973Z,66.28
2022-09-23T22:57:40.627Z,66.34
2022-09-23T23:00:09.448Z,66.30
2022-09-23T23:02:37.002Z,66.23
2022-09-23T23:05:05.046Z,66.14
2022-09-23T23:07:34.142Z,66.18
2022-09-23T23:10:03.028Z,66.37
2022-09-23T23:12:33.982Z,66.41
2022-09-23T23:15:01.628Z,66.52
2022-09-23T23:17:30.151Z,66.32
2022-09-23T23:19:58.795Z,66.25
2022-09-23T23:22:30.180Z,66.20
2022-09-23T23:24:57.857Z,66.31
2022-09-23T23:27:31.045Z,66.36
2022-09-23T23:30:00.489Z,66.79
2022-09-23T23:32:28.108Z,66.75
2022-09-23T23:34:58.829Z,67.41
2022-09-23T23:37:28.526Z,67.54
2022-09-23T23:39:56.711Z,67.57
2022-09-23T23:42:26.670Z,67.47
2022-09-23T23:44:54.187Z,67.59
2022-09-23T23:47:22.409Z,67.71
2022-09-23T23:49:50.324Z,67.67
2022-09-23T23:52:18.117Z,67.96
2022-09-23T23:54:46.215Z,67.96
2022-09-23T23:57:13.884Z,67.96
2022-09-23T23:59:41.686Z,68.01
